This is the latest recevied weather packets stored in our database for station/object W6ORV. If no packets are shown the sender has not sent any weather packets the latest 10 day(s).
| Time | Temp. | Humidity | Pressure | Rain* | Wind** | Luminosity | Snow |
|---|---|---|---|---|---|---|---|
| 1777775878 | 13.89° C | 80% | 4295.4 hPa | 0 mm | - | 6 W/m² | - |
| 1777775575 | 13.89° C | 78% | 4295.5 hPa | 0 mm | - | 8 W/m² | - |
| 1777775271 | 14.44° C | 77% | 4295.5 hPa | 0 mm | - | 12 W/m² | - |
| 1777774971 | 15° C | 76% | 4295.3 hPa | 0 mm | - | 16 W/m² | - |
| 1777774668 | 15.56° C | 74% | 4295.3 hPa | 0 mm | - | 19 W/m² | - |
| 1777774363 | 15.56° C | 73% | 4295.3 hPa | 0 mm | - | 26 W/m² | - |
| 1777774062 | 15.56° C | 73% | 4295.3 hPa | 0 mm | - | 32 W/m² | - |
| 1777773759 | 16.11° C | 72% | 4295.2 hPa | 0 mm | - | 36 W/m² | - |
| 1777773455 | 16.67° C | 71% | 4295.2 hPa | 0 mm | - | 42 W/m² | - |
| 1777773152 | 16.67° C | 69% | 4295.1 hPa | 0 mm | - | 46 W/m² | - |
| 1777772848 | 16.67° C | 69% | 4295.1 hPa | 0 mm | - | 46 W/m² | - |
| 1777772243 | 17.22° C | 67% | 4295 hPa | 0 mm | - | 87 W/m² | - |
| 1777771941 | 17.78° C | 66% | 4295.3 hPa | 0 mm | - | 64 W/m² | - |
| 1777771337 | 19.44° C | 63% | 4295.1 hPa | 0 mm | - | 130 W/m² | - |
| 1777770729 | 20° C | 63% | 4295.3 hPa | 0 mm | - | 157 W/m² | - |
| 1777770425 | 20° C | 60% | 4295.1 hPa | 0 mm | - | 184 W/m² | - |
| 1777768608 | 21.11° C | 58% | 4294.9 hPa | 0 mm | - | 285 W/m² | - |
| 1777768305 | 21.67° C | 57% | 4295.2 hPa | 0 mm | - | 294 W/m² | - |
| 1777767698 | 21.67° C | 56% | 4295.1 hPa | 0 mm | - | 349 W/m² | - |
| 1777767394 | 21.67° C | 56% | 4295 hPa | 0 mm | - | 354 W/m² | - |
| 1777767091 | 21.67° C | 56% | 4294.9 hPa | 0 mm | - | 327 W/m² | - |
| 1777766486 | 22.22° C | 56% | 4294.9 hPa | 0 mm | - | 395 W/m² | - |
| 1777766182 | 22.22° C | 55% | 4294.7 hPa | 0 mm | - | 425 W/m² | - |
| 1777765881 | 21.67° C | 57% | 4294.9 hPa | 0 mm | - | 422 W/m² | - |
| 1777765274 | 22.22° C | 54% | 4294.9 hPa | 0 mm | - | 470 W/m² | - |
* Rain latest hour (hover to see other rain measurements)
** Current wind speed in m/s (hover to see current wind gust speed)